sensor_id;sensor_type;location;lat;lon;timestamp;pressure;altitude;pressure_sealevel;temperature;humidity
30021;BME280;16861;52.294;7.760;2023-02-26T00:01:27;99911.09;;;3.61;67.67
30021;BME280;16861;52.294;7.760;2023-02-26T00:03:56;99900.78;;;3.57;67.35
30021;BME280;16861;52.294;7.760;2023-02-26T00:06:24;99909.56;;;3.52;68.12
30021;BME280;16861;52.294;7.760;2023-02-26T00:08:52;99920.06;;;3.49;68.17
30021;BME280;16861;52.294;7.760;2023-02-26T00:11:20;99914.06;;;3.46;67.90
30021;BME280;16861;52.294;7.760;2023-02-26T00:13:48;99915.94;;;3.41;67.66
30021;BME280;16861;52.294;7.760;2023-02-26T00:18:50;99917.03;;;3.32;68.23
30021;BME280;16861;52.294;7.760;2023-02-26T00:21:18;99922.28;;;3.29;68.03
30021;BME280;16861;52.294;7.760;2023-02-26T00:23:45;99923.25;;;3.24;68.05
30021;BME280;16861;52.294;7.760;2023-02-26T00:26:12;99926.78;;;3.22;68.21
30021;BME280;16861;52.294;7.760;2023-02-26T00:28:39;99935.56;;;3.18;68.06
30021;BME280;16861;52.294;7.760;2023-02-26T00:31:06;99933.03;;;3.15;68.32
30021;BME280;16861;52.294;7.760;2023-02-26T00:33:33;99940.06;;;3.11;67.96
30021;BME280;16861;52.294;7.760;2023-02-26T00:36:23;99939.38;;;3.03;66.11
30021;BME280;16861;52.294;7.760;2023-02-26T00:41:21;99943.72;;;3.00;68.10
30021;BME280;16861;52.294;7.760;2023-02-26T00:43:48;99949.88;;;2.96;68.84
30021;BME280;16861;52.294;7.760;2023-02-26T00:52:14;99959.56;;;2.90;67.78
30021;BME280;16861;52.294;7.760;2023-02-26T00:54:44;99963.09;;;2.87;68.48
30021;BME280;16861;52.294;7.760;2023-02-26T00:57:11;99971.00;;;2.84;68.22
30021;BME280;16861;52.294;7.760;2023-02-26T00:59:37;99961.47;;;2.81;68.17
30021;BME280;16861;52.294;7.760;2023-02-26T01:02:04;99971.09;;;2.78;68.46
30021;BME280;16861;52.294;7.760;2023-02-26T01:04:30;99973.75;;;2.74;68.59
30021;BME280;16861;52.294;7.760;2023-02-26T01:06:57;99973.84;;;2.71;68.73
30021;BME280;16861;52.294;7.760;2023-02-26T01:09:32;99975.59;;;2.69;68.52
30021;BME280;16861;52.294;7.760;2023-02-26T01:12:02;99984.31;;;2.67;68.86
30021;BME280;16861;52.294;7.760;2023-02-26T01:14:30;99984.31;;;2.67;68.76
30021;BME280;16861;52.294;7.760;2023-02-26T01:17:18;99985.28;;;2.63;67.27
30021;BME280;16861;52.294;7.760;2023-02-26T01:19:53;99984.38;;;2.64;67.92
30021;BME280;16861;52.294;7.760;2023-02-26T01:22:38;99984.44;;;2.62;67.14
30021;BME280;16861;52.294;7.760;2023-02-26T01:25:14;99992.16;;;2.65;68.70
30021;BME280;16861;52.294;7.760;2023-02-26T01:27:41;99991.22;;;2.68;70.05
30021;BME280;16861;52.294;7.760;2023-02-26T01:30:08;99988.59;;;2.69;69.95
30021;BME280;16861;52.294;7.760;2023-02-26T01:35:45;99991.16;;;2.72;68.56
30021;BME280;16861;52.294;7.760;2023-02-26T01:46:15;99997.28;;;2.68;66.78
30021;BME280;16861;52.294;7.760;2023-02-26T01:48:54;99993.88;;;2.66;67.13
30021;BME280;16861;52.294;7.760;2023-02-26T01:51:45;99993.94;;;2.63;66.70
30021;BME280;16861;52.294;7.760;2023-02-26T01:54:14;100002.56;;;2.64;68.67
30021;BME280;16861;52.294;7.760;2023-02-26T01:56:43;99996.59;;;2.60;68.30
30021;BME280;16861;52.294;7.760;2023-02-26T01:59:14;99998.41;;;2.56;68.00
30021;BME280;16861;52.294;7.760;2023-02-26T02:01:41;99999.31;;;2.54;68.67
30021;BME280;16861;52.294;7.760;2023-02-26T02:04:13;100007.19;;;2.49;66.94
30021;BME280;16861;52.294;7.760;2023-02-26T02:06:41;100010.72;;;2.46;66.01
30021;BME280;16861;52.294;7.760;2023-02-26T02:09:09;100010.75;;;2.43;68.61
30021;BME280;16861;52.294;7.760;2023-02-26T02:12:06;100022.19;;;2.36;66.72
30021;BME280;16861;52.294;7.760;2023-02-26T02:20:51;100031.06;;;2.22;67.67
30021;BME280;16861;52.294;7.760;2023-02-26T02:26:03;100038.16;;;2.14;66.33
30021;BME280;16861;52.294;7.760;2023-02-26T02:29:01;100039.91;;;2.12;66.86
30021;BME280;16861;52.294;7.760;2023-02-26T02:31:40;100040.81;;;2.10;66.64
30021;BME280;16861;52.294;7.760;2023-02-26T02:34:18;100042.53;;;2.09;67.53
30021;BME280;16861;52.294;7.760;2023-02-26T02:37:00;100041.72;;;2.07;67.67
30021;BME280;16861;52.294;7.760;2023-02-26T02:39:41;100046.94;;;2.05;67.22
30021;BME280;16861;52.294;7.760;2023-02-26T02:42:31;100051.28;;;2.05;66.88
30021;BME280;16861;52.294;7.760;2023-02-26T02:45:16;100051.31;;;2.03;66.70
30021;BME280;16861;52.294;7.760;2023-02-26T02:47:49;100053.94;;;2.02;68.05
30021;BME280;16861;52.294;7.760;2023-02-26T02:50:35;100065.25;;;1.98;66.34
30021;BME280;16861;52.294;7.760;2023-02-26T02:53:10;100071.34;;;1.97;67.56
30021;BME280;16861;52.294;7.760;2023-02-26T02:55:47;100075.72;;;1.93;67.06
30021;BME280;16861;52.294;7.760;2023-02-26T02:58:22;100078.31;;;1.91;66.87
30021;BME280;16861;52.294;7.760;2023-02-26T03:00:54;100076.63;;;1.89;67.70
30021;BME280;16861;52.294;7.760;2023-02-26T03:03:52;100075.84;;;1.84;65.98
30021;BME280;16861;52.294;7.760;2023-02-26T03:06:20;100083.63;;;1.85;68.54
30021;BME280;16861;52.294;7.760;2023-02-26T03:08:47;100085.38;;;1.83;68.59
30021;BME280;16861;52.294;7.760;2023-02-26T03:11:15;100101.00;;;1.81;68.55
30021;BME280;16861;52.294;7.760;2023-02-26T03:13:42;100082.88;;;1.78;68.55
30021;BME280;16861;52.294;7.760;2023-02-26T03:19:20;100096.78;;;1.74;66.14
30021;BME280;16861;52.294;7.760;2023-02-26T03:24:36;100100.25;;;1.73;66.67
30021;BME280;16861;52.294;7.760;2023-02-26T03:27:11;100107.16;;;1.74;67.92
30021;BME280;16861;52.294;7.760;2023-02-26T03:32:22;100113.22;;;1.73;68.13
30021;BME280;16861;52.294;7.760;2023-02-26T03:34:58;100114.97;;;1.73;67.54
30021;BME280;16861;52.294;7.760;2023-02-26T03:40:08;100120.16;;;1.73;68.10
30021;BME280;16861;52.294;7.760;2023-02-26T03:42:45;100129.63;;;1.74;68.73
30021;BME280;16861;52.294;7.760;2023-02-26T03:45:16;100127.91;;;1.74;69.03
30021;BME280;16861;52.294;7.760;2023-02-26T03:47:47;100133.97;;;1.75;69.21
30021;BME280;16861;52.294;7.760;2023-02-26T03:50:19;100137.41;;;1.74;68.04
30021;BME280;16861;52.294;7.760;2023-02-26T03:52:48;100133.97;;;1.75;69.29
30021;BME280;16861;52.294;7.760;2023-02-26T03:55:18;100143.50;;;1.73;68.74
30021;BME280;16861;52.294;7.760;2023-02-26T03:57:47;100142.63;;;1.72;68.99
30021;BME280;16861;52.294;7.760;2023-02-26T04:00:15;100153.06;;;1.71;68.73
30021;BME280;16861;52.294;7.760;2023-02-26T04:02:51;100153.94;;;1.68;67.23
30021;BME280;16861;52.294;7.760;2023-02-26T04:05:23;100156.59;;;1.65;68.01
30021;BME280;16861;52.294;7.760;2023-02-26T04:07:52;100160.91;;;1.64;68.87
30021;BME280;16861;52.294;7.760;2023-02-26T04:10:23;100154.03;;;1.62;68.23
30021;BME280;16861;52.294;7.760;2023-02-26T04:12:50;100163.53;;;1.61;68.95
30021;BME280;16861;52.294;7.760;2023-02-26T04:15:17;100163.59;;;1.58;68.77
30021;BME280;16861;52.294;7.760;2023-02-26T04:17:43;100178.31;;;1.58;69.03
30021;BME280;16861;52.294;7.760;2023-02-26T04:20:10;100176.59;;;1.56;69.25
30021;BME280;16861;52.294;7.760;2023-02-26T04:22:37;100180.06;;;1.55;68.95
30021;BME280;16861;52.294;7.760;2023-02-26T04:25:04;100182.69;;;1.54;69.13
30021;BME280;16861;52.294;7.760;2023-02-26T04:27:30;100187.00;;;1.53;69.01
30021;BME280;16861;52.294;7.760;2023-02-26T04:29:57;100195.66;;;1.52;69.22
30021;BME280;16861;52.294;7.760;2023-02-26T04:32:23;100193.09;;;1.51;68.91
30021;BME280;16861;52.294;7.760;2023-02-26T04:34:50;100194.81;;;1.50;68.32
30021;BME280;16861;52.294;7.760;2023-02-26T04:37:17;100203.50;;;1.48;68.71
30021;BME280;16861;52.294;7.760;2023-02-26T04:39:43;100205.28;;;1.46;68.71
30021;BME280;16861;52.294;7.760;2023-02-26T04:42:10;100205.28;;;1.42;68.99
30021;BME280;16861;52.294;7.760;2023-02-26T04:44:36;100211.38;;;1.40;69.21
30021;BME280;16861;52.294;7.760;2023-02-26T04:47:03;100215.69;;;1.39;69.09
30021;BME280;16861;52.294;7.760;2023-02-26T04:49:29;100217.47;;;1.37;68.63
30021;BME280;16861;52.294;7.760;2023-02-26T04:51:56;100223.56;;;1.35;69.04
30021;BME280;16861;52.294;7.760;2023-02-26T04:54:23;100217.50;;;1.34;69.02
30021;BME280;16861;52.294;7.760;2023-02-26T04:56:49;100220.97;;;1.33;69.21
30021;BME280;16861;52.294;7.760;2023-02-26T04:59:16;100226.16;;;1.33;69.00
30021;BME280;16861;52.294;7.760;2023-02-26T05:01:42;100223.56;;;1.32;68.80
30021;BME280;16861;52.294;7.760;2023-02-26T05:04:09;100228.78;;;1.30;69.58
30021;BME280;16861;52.294;7.760;2023-02-26T05:06:36;100231.38;;;1.30;69.19
30021;BME280;16861;52.294;7.760;2023-02-26T05:09:03;100226.19;;;1.28;69.02
30021;BME280;16861;52.294;7.760;2023-02-26T05:11:29;100236.63;;;1.27;69.13
30021;BME280;16861;52.294;7.760;2023-02-26T05:13:56;100235.75;;;1.26;69.09
30021;BME280;16861;52.294;7.760;2023-02-26T05:16:22;100237.47;;;1.24;68.67
30021;BME280;16861;52.294;7.760;2023-02-26T05:18:49;100247.00;;;1.24;68.80
30021;BME280;16861;52.294;7.760;2023-02-26T05:21:16;100257.41;;;1.21;69.09
30021;BME280;16861;52.294;7.760;2023-02-26T05:23:42;100250.50;;;1.20;69.26
30021;BME280;16861;52.294;7.760;2023-02-26T05:26:09;100251.41;;;1.19;68.99
30021;BME280;16861;52.294;7.760;2023-02-26T05:28:36;100264.38;;;1.15;69.24
30021;BME280;16861;52.294;7.760;2023-02-26T05:31:03;100271.28;;;1.13;69.33
30021;BME280;16861;52.294;7.760;2023-02-26T05:33:30;100273.88;;;1.15;69.82
30021;BME280;16861;52.294;7.760;2023-02-26T05:35:56;100278.22;;;1.14;69.28
30021;BME280;16861;52.294;7.760;2023-02-26T05:38:23;100268.72;;;1.13;69.38
30021;BME280;16861;52.294;7.760;2023-02-26T05:40:49;100275.66;;;1.13;69.23
30021;BME280;16861;52.294;7.760;2023-02-26T05:43:16;100273.06;;;1.11;69.54
30021;BME280;16861;52.294;7.760;2023-02-26T05:45:42;100282.56;;;1.11;69.67
30021;BME280;16861;52.294;7.760;2023-02-26T05:48:09;100287.78;;;1.09;70.19
30021;BME280;16861;52.294;7.760;2023-02-26T05:50:36;100295.56;;;1.09;69.63
30021;BME280;16861;52.294;7.760;2023-02-26T05:53:02;100299.00;;;1.10;69.38
30021;BME280;16861;52.294;7.760;2023-02-26T05:55:29;100297.28;;;1.07;69.84
30021;BME280;16861;52.294;7.760;2023-02-26T05:57:55;100299.03;;;1.07;69.69
30021;BME280;16861;52.294;7.760;2023-02-26T06:00:22;100298.19;;;1.06;70.11
30021;BME280;16861;52.294;7.760;2023-02-26T06:02:48;100309.44;;;1.05;69.64
30021;BME280;16861;52.294;7.760;2023-02-26T06:05:15;100307.69;;;1.06;69.77
30021;BME280;16861;52.294;7.760;2023-02-26T06:07:42;100314.63;;;1.03;69.61
30021;BME280;16861;52.294;7.760;2023-02-26T06:10:09;100328.44;;;1.04;69.65
30021;BME280;16861;52.294;7.760;2023-02-26T06:12:36;100322.41;;;1.03;69.93
30021;BME280;16861;52.294;7.760;2023-02-26T06:15:04;100329.31;;;1.03;70.11
30021;BME280;16861;52.294;7.760;2023-02-26T06:17:31;100326.72;;;1.03;69.88
30021;BME280;16861;52.294;7.760;2023-02-26T06:19:58;100329.31;;;1.03;70.33
30021;BME280;16861;52.294;7.760;2023-02-26T06:22:25;100334.50;;;1.03;69.80
30021;BME280;16861;52.294;7.760;2023-02-26T06:24:51;100336.22;;;1.02;69.93
30021;BME280;16861;52.294;7.760;2023-02-26T06:27:21;100350.06;;;1.01;69.84
30021;BME280;16861;52.294;7.760;2023-02-26T06:29:47;100346.63;;;1.01;70.14
30021;BME280;16861;52.294;7.760;2023-02-26T06:32:14;100347.47;;;1.00;69.63
30021;BME280;16861;52.294;7.760;2023-02-26T06:34:41;100355.25;;;1.00;70.25
30021;BME280;16861;52.294;7.760;2023-02-26T06:37:07;100365.63;;;1.00;70.38
30021;BME280;16861;52.294;7.760;2023-02-26T06:39:34;100370.81;;;1.00;69.60
30021;BME280;16861;52.294;7.760;2023-02-26T06:42:00;100377.75;;;0.99;70.42
30021;BME280;16861;52.294;7.760;2023-02-26T06:44:27;100381.22;;;0.98;69.82
30021;BME280;16861;52.294;7.760;2023-02-26T06:46:54;100381.22;;;0.98;70.11
30021;BME280;16861;52.294;7.760;2023-02-26T06:49:20;100390.72;;;0.98;70.04
30021;BME280;16861;52.294;7.760;2023-02-26T06:51:47;100395.91;;;0.96;70.09
30021;BME280;16861;52.294;7.760;2023-02-26T06:54:13;100396.78;;;0.97;70.32
30021;BME280;16861;52.294;7.760;2023-02-26T06:56:40;100404.56;;;0.97;70.52
30021;BME280;16861;52.294;7.760;2023-02-26T06:59:06;100404.56;;;0.97;70.66
30021;BME280;16861;52.294;7.760;2023-02-26T07:01:33;100414.03;;;0.96;70.25
30021;BME280;16861;52.294;7.760;2023-02-26T07:03:59;100420.94;;;0.97;70.33
30021;BME280;16861;52.294;7.760;2023-02-26T07:06:26;100415.75;;;0.97;70.23
30021;BME280;16861;52.294;7.760;2023-02-26T07:08:54;100425.28;;;0.98;70.37
30021;BME280;16861;52.294;7.760;2023-02-26T07:11:21;100420.06;;;1.00;71.11
30021;BME280;16861;52.294;7.760;2023-02-26T07:13:48;100429.53;;;1.02;70.54
30021;BME280;16861;52.294;7.760;2023-02-26T07:16:14;100420.91;;;1.03;70.43
30021;BME280;16861;52.294;7.760;2023-02-26T07:18:41;100430.41;;;1.06;70.93
30021;BME280;16861;52.294;7.760;2023-02-26T07:21:07;100426.06;;;1.08;70.81
30021;BME280;16861;52.294;7.760;2023-02-26T07:23:34;100431.25;;;1.10;70.66
30021;BME280;16861;52.294;7.760;2023-02-26T07:26:00;100426.03;;;1.11;70.90
30021;BME280;16861;52.294;7.760;2023-02-26T07:28:27;100436.41;;;1.14;70.68
30021;BME280;16861;52.294;7.760;2023-02-26T07:30:54;100447.63;;;1.16;70.75
30021;BME280;16861;52.294;7.760;2023-02-26T07:33:21;100450.19;;;1.20;70.83
30021;BME280;16861;52.294;7.760;2023-02-26T07:35:48;100452.78;;;1.21;70.75
30021;BME280;16861;52.294;7.760;2023-02-26T07:38:15;100459.69;;;1.24;70.72
30021;BME280;16861;52.294;7.760;2023-02-26T07:40:44;100459.66;;;1.27;70.94
30021;BME280;16861;52.294;7.760;2023-02-26T07:43:11;100462.22;;;1.30;70.71
30021;BME280;16861;52.294;7.760;2023-02-26T07:45:37;100465.66;;;1.32;71.43
30021;BME280;16861;52.294;7.760;2023-02-26T07:48:04;100466.50;;;1.34;71.24
30021;BME280;16861;52.294;7.760;2023-02-26T07:50:31;100471.69;;;1.37;70.93
30021;BME280;16861;52.294;7.760;2023-02-26T07:52:59;100474.25;;;1.40;71.14
30021;BME280;16861;52.294;7.760;2023-02-26T07:55:25;100475.09;;;1.42;71.21
30021;BME280;16861;52.294;7.760;2023-02-26T07:57:53;100482.88;;;1.46;71.20
30021;BME280;16861;52.294;7.760;2023-02-26T08:00:19;100482.84;;;1.49;71.54
30021;BME280;16861;52.294;7.760;2023-02-26T08:02:46;100491.47;;;1.54;71.30
30021;BME280;16861;52.294;7.760;2023-02-26T08:05:13;100484.50;;;1.58;71.60
30021;BME280;16861;52.294;7.760;2023-02-26T08:07:39;100487.91;;;1.61;71.71
30021;BME280;16861;52.294;7.760;2023-02-26T08:10:06;100490.50;;;1.64;71.28
30021;BME280;16861;52.294;7.760;2023-02-26T08:12:33;100502.56;;;1.68;71.74
30021;BME280;16861;52.294;7.760;2023-02-26T08:15:00;100498.22;;;1.72;71.28
30021;BME280;16861;52.294;7.760;2023-02-26T08:17:26;100505.09;;;1.76;70.92
30021;BME280;16861;52.294;7.760;2023-02-26T08:19:53;100512.88;;;1.81;71.55
30021;BME280;16861;52.294;7.760;2023-02-26T08:22:20;100509.38;;;1.85;71.37
30021;BME280;16861;52.294;7.760;2023-02-26T08:24:47;100508.47;;;1.89;71.74
30021;BME280;16861;52.294;7.760;2023-02-26T08:27:13;100507.56;;;1.93;71.49
30021;BME280;16861;52.294;7.760;2023-02-26T08:29:40;100514.47;;;1.98;71.12
30021;BME280;16861;52.294;7.760;2023-02-26T08:32:08;100516.13;;;2.03;71.34
30021;BME280;16861;52.294;7.760;2023-02-26T08:34:34;100516.09;;;2.05;70.95
30021;BME280;16861;52.294;7.760;2023-02-26T08:37:01;100522.97;;;2.11;71.46
30021;BME280;16861;52.294;7.760;2023-02-26T08:39:27;100527.28;;;2.15;71.43
30021;BME280;16861;52.294;7.760;2023-02-26T08:41:58;100529.84;;;2.19;71.29
30021;BME280;16861;52.294;7.760;2023-02-26T08:44:24;100537.56;;;2.24;71.13
30021;BME280;16861;52.294;7.760;2023-02-26T08:46:51;100541.84;;;2.28;70.78
30021;BME280;16861;52.294;7.760;2023-02-26T08:49:17;100541.81;;;2.33;70.41
30021;BME280;16861;52.294;7.760;2023-02-26T08:51:44;100551.31;;;2.37;70.84
30021;BME280;16861;52.294;7.760;2023-02-26T08:54:10;100537.44;;;2.40;70.69
30021;BME280;16861;52.294;7.760;2023-02-26T08:56:37;100541.69;;;2.45;70.46
30021;BME280;16861;52.294;7.760;2023-02-26T08:59:04;100548.59;;;2.48;70.73
30021;BME280;16861;52.294;7.760;2023-02-26T09:01:31;100563.28;;;2.54;70.40
30021;BME280;16861;52.294;7.760;2023-02-26T09:03:57;100553.69;;;2.59;70.54
30021;BME280;16861;52.294;7.760;2023-02-26T09:06:24;100562.28;;;2.64;70.44
30021;BME280;16861;52.294;7.760;2023-02-26T09:08:51;100559.66;;;2.69;70.25
30021;BME280;16861;52.294;7.760;2023-02-26T09:11:17;100571.72;;;2.73;70.09
30021;BME280;16861;52.294;7.760;2023-02-26T09:13:44;100571.66;;;2.78;70.29
30021;BME280;16861;52.294;7.760;2023-02-26T09:16:10;100575.06;;;2.83;70.26
30021;BME280;16861;52.294;7.760;2023-02-26T09:18:37;100584.56;;;2.87;70.17
30021;BME280;16861;52.294;7.760;2023-02-26T09:21:04;100591.41;;;2.94;70.60
30021;BME280;16861;52.294;7.760;2023-02-26T09:23:30;100580.97;;;2.97;70.21
30021;BME280;16861;52.294;7.760;2023-02-26T09:25:57;100593.03;;;3.03;70.04
30021;BME280;16861;52.294;7.760;2023-02-26T09:28:24;100594.69;;;3.09;70.09
30021;BME280;16861;52.294;7.760;2023-02-26T09:30:53;100595.47;;;3.16;70.17
30021;BME280;16861;52.294;7.760;2023-02-26T09:33:20;100591.94;;;3.21;70.41
30021;BME280;16861;52.294;7.760;2023-02-26T09:35:49;100589.28;;;3.28;69.48
30021;BME280;16861;52.294;7.760;2023-02-26T09:38:16;100597.88;;;3.33;69.32
30021;BME280;16861;52.294;7.760;2023-02-26T09:40:49;100600.41;;;3.36;66.66
30021;BME280;16861;52.294;7.760;2023-02-26T09:51:30;100609.69;;;3.59;68.57
30021;BME280;16861;52.294;7.760;2023-02-26T09:53:59;100616.56;;;3.63;68.73
30021;BME280;16861;52.294;7.760;2023-02-26T09:56:32;100606.97;;;3.65;67.18
30021;BME280;16861;52.294;7.760;2023-02-26T09:59:02;100613.84;;;3.71;69.08
30021;BME280;16861;52.294;7.760;2023-02-26T10:04:17;100613.69;;;3.80;66.09
30021;BME280;16861;52.294;7.760;2023-02-26T10:07:09;100621.38;;;3.88;66.16
30021;BME280;16861;52.294;7.760;2023-02-26T10:09:54;100628.22;;;3.97;66.75
30021;BME280;16861;52.294;7.760;2023-02-26T10:12:25;100632.41;;;4.06;67.97
30021;BME280;16861;52.294;7.760;2023-02-26T10:15:09;100628.81;;;4.14;65.03
30021;BME280;16861;52.294;7.760;2023-02-26T10:23:03;100641.31;;;4.46;64.78
30021;BME280;16861;52.294;7.760;2023-02-26T10:26:04;100645.47;;;4.57;64.63
30021;BME280;16861;52.294;7.760;2023-02-26T10:31:32;100641.53;;;4.82;65.72
30021;BME280;16861;52.294;7.760;2023-02-26T10:34:27;100656.03;;;4.97;66.02
30021;BME280;16861;52.294;7.760;2023-02-26T10:37:18;100654.88;;;5.14;65.67
30021;BME280;16861;52.294;7.760;2023-02-26T10:39:56;100659.66;;;5.34;70.00
30021;BME280;16861;52.294;7.760;2023-02-26T10:42:29;100658.50;;;5.49;68.48
30021;BME280;16861;52.294;7.760;2023-02-26T10:50:12;100664.53;;;5.92;64.00
30021;BME280;16861;52.294;7.760;2023-02-26T10:52:41;100661.69;;;6.05;67.06
30021;BME280;16861;52.294;7.760;2023-02-26T10:55:25;100662.41;;;6.11;60.08
30021;BME280;16861;52.294;7.760;2023-02-26T10:58:03;100666.50;;;6.22;62.72
30021;BME280;16861;52.294;7.760;2023-02-26T11:00:32;100656.66;;;6.33;67.11
30021;BME280;16861;52.294;7.760;2023-02-26T11:03:02;100668.56;;;6.44;66.70
30021;BME280;16861;52.294;7.760;2023-02-26T11:05:31;100664.81;;;6.54;66.29
30021;BME280;16861;52.294;7.760;2023-02-26T11:08:26;100664.66;;;6.62;61.21
30021;BME280;16861;52.294;7.760;2023-02-26T11:10:59;100667.81;;;6.73;63.79
30021;BME280;16861;52.294;7.760;2023-02-26T11:13:28;100653.66;;;6.82;64.52
30021;BME280;16861;52.294;7.760;2023-02-26T11:16:02;100667.41;;;6.90;63.41
30021;BME280;16861;52.294;7.760;2023-02-26T11:18:35;100660.31;;;6.94;63.95
30021;BME280;16861;52.294;7.760;2023-02-26T11:21:05;100667.19;;;6.98;64.62
30021;BME280;16861;52.294;7.760;2023-02-26T11:26:13;100662.69;;;7.02;60.86
30021;BME280;16861;52.294;7.760;2023-02-26T11:28:48;100665.16;;;7.08;59.95
30021;BME280;16861;52.294;7.760;2023-02-26T11:31:18;100665.78;;;7.18;63.45
30021;BME280;16861;52.294;7.760;2023-02-26T11:33:50;100670.78;;;7.26;60.86
30021;BME280;16861;52.294;7.760;2023-02-26T11:36:18;100672.28;;;7.35;62.70
30021;BME280;16861;52.294;7.760;2023-02-26T11:38:52;100667.91;;;7.35;59.40
30021;BME280;16861;52.294;7.760;2023-02-26T11:41:18;100664.38;;;7.36;58.89
30021;BME280;16861;52.294;7.760;2023-02-26T11:43:48;100670.53;;;7.35;61.40
30021;BME280;16861;52.294;7.760;2023-02-26T11:46:15;100667.94;;;7.34;63.90
30021;BME280;16861;52.294;7.760;2023-02-26T11:48:45;100669.53;;;7.39;63.21
30021;BME280;16861;52.294;7.760;2023-02-26T11:51:15;100675.88;;;7.61;67.10
30021;BME280;16861;52.294;7.760;2023-02-26T11:53:50;100669.78;;;7.90;63.69
30021;BME280;16861;52.294;7.760;2023-02-26T11:56:38;100671.06;;;8.32;62.37
30021;BME280;16861;52.294;7.760;2023-02-26T12:01:45;100672.50;;;8.95;62.30
30021;BME280;16861;52.294;7.760;2023-02-26T12:04:17;100669.75;;;8.98;59.86
30021;BME280;16861;52.294;7.760;2023-02-26T12:06:46;100675.28;;;8.91;58.74
30021;BME280;16861;52.294;7.760;2023-02-26T12:09:14;100674.84;;;8.78;59.61
30021;BME280;16861;52.294;7.760;2023-02-26T12:20:32;100679.06;;;9.07;66.36
30021;BME280;16861;52.294;7.760;2023-02-26T12:28:35;100674.22;;;10.78;59.40
30021;BME280;16861;52.294;7.760;2023-02-26T12:31:21;100675.38;;;11.32;57.92
30021;BME280;16861;52.294;7.760;2023-02-26T13:12:23;100669.94;;;16.87;48.16
30021;BME280;16861;52.294;7.760;2023-02-26T13:15:04;100659.09;;;17.16;47.78
30021;BME280;16861;52.294;7.760;2023-02-26T13:17:48;100652.69;;;17.31;45.88
30021;BME280;16861;52.294;7.760;2023-02-26T13:20:20;100654.91;;;17.38;48.93
30021;BME280;16861;52.294;7.760;2023-02-26T13:23:16;100650.78;;;17.34;45.88
30021;BME280;16861;52.294;7.760;2023-02-26T13:25:53;100655.56;;;17.28;45.56
30021;BME280;16861;52.294;7.760;2023-02-26T13:28:47;100662.69;;;17.15;44.86
30021;BME280;16861;52.294;7.760;2023-02-26T13:31:53;100662.16;;;16.97;45.03
30021;BME280;16861;52.294;7.760;2023-02-26T13:37:20;100646.50;;;16.53;44.15
30021;BME280;16861;52.294;7.760;2023-02-26T13:42:46;100658.06;;;15.98;45.15
30021;BME280;16861;52.294;7.760;2023-02-26T13:48:26;100650.78;;;15.45;44.95
30021;BME280;16861;52.294;7.760;2023-02-26T13:53:47;100650.91;;;15.00;42.13
30021;BME280;16861;52.294;7.760;2023-02-26T13:56:20;100633.75;;;14.91;49.54
30021;BME280;16861;52.294;7.760;2023-02-26T13:58:53;100637.13;;;14.79;46.27
30021;BME280;16861;52.294;7.760;2023-02-26T14:01:27;100643.53;;;14.75;44.26
30021;BME280;16861;52.294;7.760;2023-02-26T14:07:11;100643.97;;;14.83;45.60
30021;BME280;16861;52.294;7.760;2023-02-26T14:09:45;100646.81;;;14.94;49.21
30021;BME280;16861;52.294;7.760;2023-02-26T14:12:32;100642.84;;;15.02;46.37
30021;BME280;16861;52.294;7.760;2023-02-26T14:17:38;100655.91;;;15.34;45.95
30021;BME280;16861;52.294;7.760;2023-02-26T14:22:48;100648.75;;;15.91;49.14
30021;BME280;16861;52.294;7.760;2023-02-26T14:25:33;100655.06;;;16.31;47.44
30021;BME280;16861;52.294;7.760;2023-02-26T14:30:49;100650.34;;;17.27;48.91
30021;BME280;16861;52.294;7.760;2023-02-26T14:33:25;100649.94;;;17.70;50.18
30021;BME280;16861;52.294;7.760;2023-02-26T14:35:53;100646.91;;;18.13;50.32
30021;BME280;16861;52.294;7.760;2023-02-26T14:38:23;100644.34;;;18.47;47.41
30021;BME280;16861;52.294;7.760;2023-02-26T14:41:23;100650.31;;;18.73;43.98
30021;BME280;16861;52.294;7.760;2023-02-26T14:44:13;100658.75;;;19.03;44.62
30021;BME280;16861;52.294;7.760;2023-02-26T14:46:42;100645.88;;;19.20;46.15
30021;BME280;16861;52.294;7.760;2023-02-26T14:49:36;100653.78;;;19.10;42.07
30021;BME280;16861;52.294;7.760;2023-02-26T15:03:31;100669.81;;;19.10;41.36
30021;BME280;16861;52.294;7.760;2023-02-26T15:06:23;100658.22;;;18.98;41.00
30021;BME280;16861;52.294;7.760;2023-02-26T15:19:43;100666.53;;;18.59;40.40
30021;BME280;16861;52.294;7.760;2023-02-26T15:22:18;100663.72;;;18.49;40.97
30021;BME280;16861;52.294;7.760;2023-02-26T15:24:48;100667.09;;;18.40;44.58
30021;BME280;16861;52.294;7.760;2023-02-26T15:27:17;100665.97;;;18.31;42.70
30021;BME280;16861;52.294;7.760;2023-02-26T15:29:45;100670.91;;;18.24;43.93
30021;BME280;16861;52.294;7.760;2023-02-26T15:32:27;100670.75;;;18.14;41.62
30021;BME280;16861;52.294;7.760;2023-02-26T15:35:02;100673.16;;;17.93;40.24
30021;BME280;16861;52.294;7.760;2023-02-26T15:37:30;100672.22;;;17.56;41.62
30021;BME280;16861;52.294;7.760;2023-02-26T15:40:03;100667.16;;;17.01;39.65
30021;BME280;16861;52.294;7.760;2023-02-26T15:42:38;100682.53;;;16.44;39.57
30021;BME280;16861;52.294;7.760;2023-02-26T15:45:20;100689.88;;;15.71;38.82
30021;BME280;16861;52.294;7.760;2023-02-26T15:47:55;100684.31;;;15.03;40.41
30021;BME280;16861;52.294;7.760;2023-02-26T15:50:28;100690.94;;;14.34;40.49
30021;BME280;16861;52.294;7.760;2023-02-26T15:52:59;100688.03;;;13.76;41.46
30021;BME280;16861;52.294;7.760;2023-02-26T15:55:32;100688.28;;;13.21;41.21
30021;BME280;16861;52.294;7.760;2023-02-26T15:58:01;100693.31;;;12.74;43.90
30021;BME280;16861;52.294;7.760;2023-02-26T16:00:32;100703.44;;;12.29;43.20
30021;BME280;16861;52.294;7.760;2023-02-26T16:03:00;100702.56;;;11.92;44.94
30021;BME280;16861;52.294;7.760;2023-02-26T16:05:28;100705.03;;;11.56;45.19
30021;BME280;16861;52.294;7.760;2023-02-26T16:07:55;100695.88;;;11.25;45.95
30021;BME280;16861;52.294;7.760;2023-02-26T16:10:33;100693.91;;;10.90;44.15